createdAt,value
2018-08-22T00:01:27.740Z,16.40
2018-08-22T00:03:55.776Z,16.30
2018-08-22T00:06:23.817Z,16.30
2018-08-22T00:08:51.864Z,16.30
2018-08-22T00:11:19.918Z,16.30
2018-08-22T00:13:48.044Z,16.30
2018-08-22T00:16:16.071Z,16.30
2018-08-22T00:18:44.120Z,16.30
2018-08-22T00:21:12.172Z,16.20
2018-08-22T00:23:40.219Z,16.20
2018-08-22T00:26:08.297Z,16.10
2018-08-22T00:28:36.331Z,16.10
2018-08-22T00:31:04.379Z,16.00
2018-08-22T00:33:32.450Z,16.10
2018-08-22T00:36:00.495Z,16.10
2018-08-22T00:38:28.534Z,16.00
2018-08-22T00:40:56.584Z,16.00
2018-08-22T00:43:24.621Z,15.90
2018-08-22T00:45:52.663Z,15.90
2018-08-22T00:48:20.710Z,15.80
2018-08-22T00:50:48.759Z,15.80
2018-08-22T00:53:16.802Z,15.70
2018-08-22T00:55:44.850Z,15.70
2018-08-22T00:58:12.884Z,15.60
2018-08-22T01:00:40.926Z,15.60
2018-08-22T01:03:09.052Z,15.60
2018-08-22T01:05:37.121Z,15.50
2018-08-22T01:08:05.196Z,15.50
2018-08-22T01:10:33.255Z,15.50
2018-08-22T01:13:01.299Z,15.40
2018-08-22T01:15:29.339Z,15.40
2018-08-22T01:17:57.380Z,15.30
2018-08-22T01:20:25.424Z,15.30
2018-08-22T01:22:53.524Z,15.30
2018-08-22T01:25:21.576Z,15.20
2018-08-22T01:27:49.659Z,15.20
2018-08-22T01:30:17.719Z,15.20
2018-08-22T01:32:45.756Z,15.10
2018-08-22T01:35:13.800Z,15.10
2018-08-22T01:37:41.855Z,15.10
2018-08-22T01:40:09.895Z,15.10
2018-08-22T01:42:38.071Z,15.10
2018-08-22T01:45:06.194Z,15.10
2018-08-22T01:47:34.269Z,15.00
2018-08-22T01:50:02.279Z,15.00
2018-08-22T01:52:30.315Z,15.00
2018-08-22T01:54:58.351Z,15.00
2018-08-22T01:57:26.386Z,14.90
2018-08-22T01:59:54.452Z,14.90
2018-08-22T02:02:22.486Z,14.90
2018-08-22T02:04:50.538Z,14.90
2018-08-22T02:07:18.570Z,14.90
2018-08-22T02:09:46.603Z,14.90
2018-08-22T02:12:14.815Z,14.90
2018-08-22T02:14:42.849Z,14.90
2018-08-22T02:17:10.919Z,14.90
2018-08-22T02:19:39.035Z,14.90
2018-08-22T02:22:07.145Z,14.90
2018-08-22T02:24:35.171Z,14.90
2018-08-22T02:27:03.211Z,15.00
2018-08-22T02:29:31.268Z,15.00
2018-08-22T02:31:59.316Z,15.00
2018-08-22T02:34:27.350Z,14.90
2018-08-22T02:36:55.389Z,14.90
2018-08-22T02:39:23.418Z,14.80
2018-08-22T02:41:51.471Z,14.80
2018-08-22T02:44:19.521Z,14.80
2018-08-22T02:46:47.555Z,14.90
2018-08-22T02:49:15.980Z,14.80
2018-08-22T02:51:44.019Z,14.80
2018-08-22T02:54:12.059Z,14.70
2018-08-22T02:56:40.101Z,14.70
2018-08-22T02:59:08.132Z,14.70
2018-08-22T03:01:36.268Z,14.60
2018-08-22T03:04:04.287Z,14.60
2018-08-22T03:06:32.333Z,14.60
2018-08-22T03:09:00.358Z,14.50
2018-08-22T03:11:28.515Z,14.50
2018-08-22T03:13:56.550Z,14.50
2018-08-22T03:16:24.651Z,14.50
2018-08-22T03:18:52.686Z,14.50
2018-08-22T03:21:20.737Z,14.50
2018-08-22T03:23:48.872Z,14.50
2018-08-22T03:26:16.945Z,14.50
2018-08-22T03:28:44.947Z,14.50
2018-08-22T03:31:13.098Z,14.50
2018-08-22T03:33:41.134Z,14.50
2018-08-22T03:36:09.179Z,14.50
2018-08-22T03:38:37.215Z,14.50
2018-08-22T03:41:05.274Z,14.50
2018-08-22T03:43:33.315Z,14.40
2018-08-22T03:46:01.356Z,14.40
2018-08-22T03:48:29.396Z,14.40
2018-08-22T03:50:57.443Z,14.40
2018-08-22T03:53:25.474Z,14.40
2018-08-22T03:55:53.583Z,14.40
2018-08-22T03:58:21.618Z,14.40
2018-08-22T04:00:49.662Z,14.40
2018-08-22T04:03:17.706Z,14.40
2018-08-22T04:05:45.757Z,14.30
2018-08-22T04:08:13.819Z,14.30
2018-08-22T04:10:41.863Z,14.30
2018-08-22T04:13:09.930Z,14.30
2018-08-22T04:15:37.974Z,14.30
2018-08-22T04:18:06.014Z,14.20
2018-08-22T04:20:34.042Z,14.30
2018-08-22T04:23:02.159Z,14.20
2018-08-22T04:25:30.199Z,14.30
2018-08-22T04:27:58.243Z,14.40
2018-08-22T04:30:26.423Z,14.40
2018-08-22T04:32:54.458Z,14.60
2018-08-22T04:35:22.609Z,14.60
2018-08-22T04:37:50.799Z,14.80
2018-08-22T04:40:18.834Z,14.90
2018-08-22T04:42:46.879Z,15.10
2018-08-22T04:45:14.915Z,15.30
2018-08-22T04:47:43.064Z,15.50
2018-08-22T04:50:11.158Z,15.80
2018-08-22T04:52:39.199Z,16.10
2018-08-22T04:55:07.235Z,16.30
2018-08-22T04:57:35.352Z,16.70
2018-08-22T05:00:03.411Z,17.20
2018-08-22T05:02:31.458Z,17.70
2018-08-22T05:04:59.572Z,18.20
2018-08-22T05:07:27.612Z,18.60
2018-08-22T05:09:55.651Z,19.10
2018-08-22T05:12:23.773Z,19.50
2018-08-22T05:14:51.802Z,19.80
2018-08-22T05:17:19.844Z,20.10
2018-08-22T05:19:47.884Z,20.50
2018-08-22T05:22:15.959Z,20.70
2018-08-22T05:24:44.034Z,20.90
2018-08-22T05:27:12.094Z,21.10
2018-08-22T05:29:40.127Z,21.30
2018-08-22T05:32:08.177Z,21.50
2018-08-22T05:34:36.214Z,21.70
2018-08-22T05:37:04.484Z,22.00
2018-08-22T05:39:32.559Z,22.40
2018-08-22T05:42:00.636Z,23.10
2018-08-22T05:44:28.731Z,23.50
2018-08-22T05:46:56.870Z,24.10
2018-08-22T05:49:25.083Z,25.10
2018-08-22T05:51:53.156Z,26.20
2018-08-22T05:54:21.183Z,26.80
2018-08-22T05:56:49.226Z,26.80
2018-08-22T05:59:17.318Z,26.50
2018-08-22T06:01:45.369Z,26.40
2018-08-22T06:04:13.400Z,26.10
2018-08-22T06:06:41.576Z,26.00
2018-08-22T06:09:11.147Z,26.10
2018-08-22T06:11:39.194Z,26.20
2018-08-22T06:14:07.287Z,26.30
2018-08-22T06:16:35.310Z,26.40
2018-08-22T06:19:03.354Z,26.10
2018-08-22T06:21:31.392Z,26.20
2018-08-22T06:23:59.423Z,26.30
2018-08-22T06:26:27.730Z,26.00
2018-08-22T06:28:55.771Z,25.50
2018-08-22T06:31:23.802Z,25.30
2018-08-22T06:33:51.951Z,25.40
2018-08-22T06:36:20.036Z,25.30
2018-08-22T06:38:48.033Z,25.00
2018-08-22T06:41:16.079Z,24.60
2018-08-22T06:43:44.118Z,24.60
2018-08-22T06:46:12.195Z,24.90
2018-08-22T06:48:40.463Z,25.10
2018-08-22T06:51:08.491Z,25.20
2018-08-22T06:53:36.571Z,24.90
2018-08-22T06:56:04.652Z,24.70
2018-08-22T06:58:32.754Z,24.50
2018-08-22T07:01:00.797Z,24.40
2018-08-22T07:03:28.855Z,24.30
2018-08-22T07:05:56.899Z,24.30
2018-08-22T07:08:24.948Z,24.10
2018-08-22T07:10:52.983Z,24.00
2018-08-22T07:13:21.042Z,24.40
2018-08-22T07:15:49.098Z,24.90
2018-08-22T07:18:17.326Z,25.00
2018-08-22T07:20:45.437Z,24.70
2018-08-22T07:23:13.442Z,24.50
2018-08-22T07:25:41.500Z,24.40
2018-08-22T07:28:09.556Z,24.70
2018-08-22T07:30:37.689Z,24.90
2018-08-22T07:33:05.731Z,25.00
2018-08-22T07:35:33.818Z,24.90
2018-08-22T07:38:01.863Z,24.80
2018-08-22T07:40:29.895Z,24.80
2018-08-22T07:42:57.963Z,25.20
2018-08-22T07:45:26.095Z,25.30
2018-08-22T07:47:54.143Z,25.60
2018-08-22T07:50:22.214Z,26.00
2018-08-22T07:52:55.654Z,26.00
2018-08-22T07:55:23.686Z,25.90
2018-08-22T07:57:51.722Z,26.20
2018-08-22T08:00:19.770Z,27.10
2018-08-22T08:02:47.820Z,27.80
2018-08-22T08:05:15.850Z,28.20
2018-08-22T08:07:43.896Z,28.00
2018-08-22T08:10:17.350Z,27.90
2018-08-22T08:12:45.494Z,27.70
2018-08-22T08:15:14.550Z,27.50
2018-08-22T08:17:42.802Z,27.50
2018-08-22T08:20:10.827Z,27.90
2018-08-22T08:22:39.006Z,28.20
2018-08-22T08:25:07.046Z,28.10
2018-08-22T08:27:35.083Z,27.90
2018-08-22T08:30:03.208Z,28.20
2018-08-22T08:32:31.429Z,28.50
2018-08-22T08:34:59.476Z,29.00
2018-08-22T08:37:27.558Z,29.50
2018-08-22T08:39:55.630Z,29.40
2018-08-22T08:42:23.663Z,29.20
2018-08-22T08:44:51.708Z,29.00
2018-08-22T08:47:19.750Z,29.00
2018-08-22T08:49:47.819Z,29.10
2018-08-22T08:52:16.292Z,28.90
2018-08-22T08:57:25.981Z,29.00
2018-08-22T08:59:53.942Z,29.10
2018-08-22T09:02:21.977Z,29.60
2018-08-22T09:04:50.020Z,29.90
2018-08-22T09:07:18.075Z,29.30
2018-08-22T09:09:46.131Z,29.30
2018-08-22T09:12:14.171Z,29.20
2018-08-22T09:14:42.227Z,29.20
2018-08-22T09:17:10.276Z,29.40
2018-08-22T09:19:38.426Z,29.20
2018-08-22T09:22:06.459Z,29.10
2018-08-22T09:24:34.509Z,29.40
2018-08-22T09:27:02.546Z,29.20
2018-08-22T09:29:30.592Z,29.20
2018-08-22T09:31:58.637Z,28.70
2018-08-22T09:34:26.680Z,28.40
2018-08-22T09:36:54.779Z,28.50
2018-08-22T09:39:22.835Z,29.00
2018-08-22T09:41:50.859Z,29.00
2018-08-22T09:44:18.934Z,29.30
2018-08-22T09:46:47.016Z,29.70
2018-08-22T09:49:15.045Z,30.20
2018-08-22T09:51:43.062Z,30.40
2018-08-22T09:54:11.166Z,29.70
2018-08-22T09:56:39.207Z,29.10
2018-08-22T09:59:07.260Z,29.40
2018-08-22T10:01:41.627Z,29.70
2018-08-22T10:04:09.675Z,30.00
2018-08-22T10:06:39.611Z,30.30
2018-08-22T10:09:09.559Z,30.60
2018-08-22T10:11:37.719Z,30.60
2018-08-22T10:14:05.777Z,30.90
2018-08-22T10:16:33.810Z,31.30
2018-08-22T10:19:01.961Z,31.30
2018-08-22T10:21:29.959Z,30.70
2018-08-22T10:23:58.004Z,30.00
2018-08-22T10:26:26.088Z,30.00
2018-08-22T10:28:54.504Z,29.90
2018-08-22T10:31:23.083Z,29.00
2018-08-22T10:33:51.140Z,28.50
2018-08-22T10:36:19.327Z,28.40
2018-08-22T10:38:47.374Z,28.50
2018-08-22T10:41:15.619Z,28.70
2018-08-22T10:43:43.649Z,28.30
2018-08-22T10:46:11.691Z,28.20
2018-08-22T10:48:39.782Z,28.00
2018-08-22T10:51:08.408Z,27.80
2018-08-22T10:53:36.538Z,27.60
2018-08-22T10:56:04.579Z,27.60
2018-08-22T10:58:32.686Z,27.70
2018-08-22T11:01:01.255Z,27.50
2018-08-22T11:03:29.443Z,27.60
2018-08-22T11:05:57.486Z,27.80
2018-08-22T11:08:25.522Z,27.60
2018-08-22T11:10:53.567Z,27.40
2018-08-22T11:13:21.606Z,27.30
2018-08-22T11:15:49.695Z,27.20
2018-08-22T11:18:17.755Z,27.50
2018-08-22T11:20:49.222Z,27.40
2018-08-22T11:23:30.029Z,27.60
2018-08-22T11:26:10.343Z,27.40
2018-08-22T11:28:49.946Z,27.30
2018-08-22T11:31:29.722Z,27.30
2018-08-22T11:34:09.411Z,27.20
2018-08-22T11:36:36.926Z,27.10
2018-08-22T11:39:06.983Z,27.10
2018-08-22T11:41:35.023Z,27.10
2018-08-22T11:44:03.055Z,27.30
2018-08-22T11:46:31.099Z,27.50
2018-08-22T11:48:59.127Z,27.40
2018-08-22T11:51:27.191Z,27.40
2018-08-22T11:53:55.232Z,27.30
2018-08-22T11:56:23.377Z,27.40
2018-08-22T11:58:51.402Z,27.20
2018-08-22T12:01:19.467Z,27.20
2018-08-22T12:03:47.498Z,27.20
2018-08-22T12:06:15.545Z,27.10
2018-08-22T12:08:43.576Z,27.30
2018-08-22T12:11:11.700Z,27.50
2018-08-22T12:13:39.842Z,27.70
2018-08-22T12:16:08.007Z,27.60
2018-08-22T12:18:36.094Z,27.60
2018-08-22T12:21:04.138Z,27.40
2018-08-22T12:23:32.172Z,27.40
2018-08-22T12:26:00.306Z,27.40
2018-08-22T12:28:28.348Z,27.50
2018-08-22T12:30:56.391Z,27.60
2018-08-22T12:33:24.434Z,27.70
2018-08-22T12:35:52.490Z,27.70
2018-08-22T12:38:20.532Z,27.70
2018-08-22T12:40:48.602Z,27.90
2018-08-22T12:43:16.875Z,28.00
2018-08-22T12:45:44.933Z,28.00
2018-08-22T12:48:13.070Z,27.90
2018-08-22T12:50:41.194Z,27.80
2018-08-22T12:53:09.240Z,27.90
2018-08-22T12:55:37.384Z,27.90
2018-08-22T12:58:05.472Z,27.70
2018-08-22T13:00:33.524Z,27.70
2018-08-22T13:03:01.622Z,27.80
2018-08-22T13:05:29.683Z,27.80
2018-08-22T13:07:57.722Z,27.70
2018-08-22T13:10:25.766Z,27.60
2018-08-22T13:12:53.798Z,27.60
2018-08-22T13:15:21.852Z,27.70
2018-08-22T13:17:49.987Z,27.90
2018-08-22T13:20:18.026Z,28.00
2018-08-22T13:22:46.068Z,27.90
2018-08-22T13:25:14.123Z,27.90
2018-08-22T13:27:42.158Z,28.00
2018-08-22T13:30:10.254Z,27.90
2018-08-22T13:32:38.257Z,27.80
2018-08-22T13:35:06.598Z,27.90
2018-08-22T13:37:34.642Z,28.00
2018-08-22T13:40:02.683Z,28.10
2018-08-22T13:42:30.792Z,28.10
2018-08-22T13:44:58.836Z,27.90
2018-08-22T13:47:26.878Z,28.00
2018-08-22T13:49:55.195Z,28.10
2018-08-22T13:52:23.281Z,28.10
2018-08-22T13:54:51.627Z,28.10
2018-08-22T13:57:19.671Z,28.10
2018-08-22T13:59:47.820Z,28.10
2018-08-22T14:02:15.874Z,28.10
2018-08-22T14:04:43.931Z,28.10
2018-08-22T14:07:12.002Z,28.10
2018-08-22T14:09:40.043Z,28.10
2018-08-22T14:12:08.168Z,28.00
2018-08-22T14:14:36.194Z,28.00
2018-08-22T14:17:04.412Z,28.10
2018-08-22T14:19:32.462Z,28.10
2018-08-22T14:22:00.511Z,28.20
2018-08-22T14:24:28.544Z,28.20
2018-08-22T14:26:56.590Z,28.20
2018-08-22T14:29:24.622Z,28.30
2018-08-22T14:31:52.696Z,28.40
2018-08-22T14:34:20.728Z,28.40
2018-08-22T14:36:48.850Z,28.40
2018-08-22T14:39:16.913Z,28.30
2018-08-22T14:41:44.958Z,28.20
2018-08-22T14:44:13.094Z,28.10
2018-08-22T14:46:41.242Z,28.00
2018-08-22T14:49:09.275Z,28.00
2018-08-22T14:51:37.403Z,28.00
2018-08-22T14:54:05.780Z,28.10
2018-08-22T14:56:33.869Z,28.10
2018-08-22T14:59:01.908Z,28.10
2018-08-22T15:01:29.993Z,28.20
2018-08-22T15:03:58.024Z,28.20
2018-08-22T15:06:26.076Z,28.20
2018-08-22T15:09:02.043Z,28.30
2018-08-22T15:11:30.144Z,28.50
2018-08-22T15:13:58.186Z,28.50
2018-08-22T15:16:26.266Z,28.40
2018-08-22T15:18:54.768Z,28.40
2018-08-22T15:21:22.871Z,28.40
2018-08-22T15:23:51.615Z,28.40
2018-08-22T15:26:19.650Z,28.50
2018-08-22T15:28:47.758Z,28.50
2018-08-22T15:31:15.795Z,28.50
2018-08-22T15:33:44.420Z,28.50
2018-08-22T15:36:12.457Z,28.50
2018-08-22T15:38:40.784Z,28.40
2018-08-22T15:41:08.830Z,28.30
2018-08-22T15:43:37.115Z,28.30
2018-08-22T15:46:05.154Z,28.20
2018-08-22T15:48:33.214Z,28.10
2018-08-22T15:51:01.874Z,28.10
2018-08-22T15:53:30.213Z,28.10
2018-08-22T15:55:58.295Z,28.20
2018-08-22T15:58:26.450Z,28.20
2018-08-22T16:00:54.931Z,28.30
2018-08-22T16:03:24.230Z,28.30
2018-08-22T16:05:52.962Z,28.40
2018-08-22T16:08:22.344Z,28.40
2018-08-22T16:10:50.382Z,28.30
2018-08-22T16:13:23.886Z,28.20
2018-08-22T16:15:53.230Z,28.10
2018-08-22T16:18:21.474Z,28.00
2018-08-22T16:21:00.943Z,27.90
2018-08-22T16:23:30.832Z,27.90
2018-08-22T16:26:00.008Z,27.80
2018-08-22T16:28:34.862Z,27.80
2018-08-22T16:31:03.033Z,27.70
2018-08-22T16:33:31.059Z,27.70
2018-08-22T16:35:59.237Z,27.70
2018-08-22T16:38:27.259Z,27.70
2018-08-22T16:40:55.407Z,27.70
2018-08-22T16:43:37.744Z,27.70
2018-08-22T16:46:06.406Z,27.70
2018-08-22T16:48:34.454Z,27.70
2018-08-22T16:51:02.503Z,27.70
2018-08-22T16:53:30.807Z,27.60
2018-08-22T16:55:58.838Z,27.60
2018-08-22T16:58:26.908Z,27.60
2018-08-22T17:00:54.943Z,27.60
2018-08-22T17:03:22.989Z,27.50
2018-08-22T17:06:00.009Z,27.50
2018-08-22T17:08:28.784Z,27.50
2018-08-22T17:10:59.280Z,27.50
2018-08-22T17:13:36.790Z,27.40
2018-08-22T17:16:05.142Z,27.40
2018-08-22T17:18:33.210Z,27.30
2018-08-22T17:21:01.244Z,27.30
2018-08-22T17:23:29.311Z,27.30
2018-08-22T17:25:57.350Z,27.30
2018-08-22T17:28:34.602Z,27.20
2018-08-22T17:31:03.294Z,27.20
2018-08-22T17:33:38.963Z,27.10
2018-08-22T17:36:07.934Z,27.10
2018-08-22T17:38:36.016Z,27.00
2018-08-22T17:41:04.052Z,27.00
2018-08-22T17:43:43.423Z,26.90
2018-08-22T17:46:11.459Z,26.90
2018-08-22T17:48:39.602Z,26.70
2018-08-22T17:51:07.642Z,26.70
2018-08-22T17:53:35.752Z,26.60
2018-08-22T17:56:03.799Z,26.50
2018-08-22T17:58:31.840Z,26.50
2018-08-22T18:01:00.055Z,26.40
2018-08-22T18:03:28.230Z,26.30
2018-08-22T18:05:56.302Z,26.30
2018-08-22T18:08:24.342Z,26.30
2018-08-22T18:10:52.391Z,26.10
2018-08-22T18:13:20.434Z,26.00
2018-08-22T18:15:49.326Z,25.90
2018-08-22T18:18:19.594Z,25.80
2018-08-22T18:20:48.604Z,25.50
2018-08-22T18:23:17.252Z,25.40
2018-08-22T18:25:51.008Z,25.30
2018-08-22T18:28:19.130Z,25.20
2018-08-22T18:30:47.248Z,25.00
2018-08-22T18:33:15.728Z,24.80
2018-08-22T18:35:44.987Z,24.70
2018-08-22T18:38:13.503Z,24.50
2018-08-22T18:40:41.640Z,24.40
2018-08-22T18:43:10.018Z,24.20
2018-08-22T18:46:09.638Z,24.00
2018-08-22T18:48:37.740Z,23.90
2018-08-22T18:51:05.867Z,23.80
2018-08-22T18:53:33.910Z,23.70
2018-08-22T18:56:11.358Z,23.60
2018-08-22T18:58:39.642Z,23.50
2018-08-22T19:01:07.747Z,23.40
2018-08-22T19:03:36.252Z,23.40
2018-08-22T19:06:04.458Z,23.30
2018-08-22T19:08:36.313Z,23.20
2018-08-22T19:11:04.390Z,23.10
2018-08-22T19:13:32.427Z,23.00
2018-08-22T19:16:03.007Z,22.90
2018-08-22T19:18:31.050Z,22.90
2018-08-22T19:21:00.869Z,22.80
2018-08-22T19:23:29.211Z,22.80
2018-08-22T19:25:57.915Z,22.70
2018-08-22T19:28:25.972Z,22.60
2018-08-22T19:30:54.014Z,22.60
2018-08-22T19:33:23.247Z,22.50
2018-08-22T19:35:51.332Z,22.40
2018-08-22T19:38:20.811Z,22.40
2018-08-22T19:40:48.850Z,22.30
2018-08-22T19:43:16.894Z,22.30
2018-08-22T19:45:44.986Z,22.20
2018-08-22T19:48:13.205Z,22.10
2018-08-22T19:50:41.272Z,22.10
2018-08-22T19:53:09.342Z,22.10
2018-08-22T19:55:37.939Z,22.00
2018-08-22T19:58:06.329Z,21.90
2018-08-22T20:00:34.378Z,21.90
2018-08-22T20:03:02.425Z,21.80
2018-08-22T20:05:45.606Z,21.80
2018-08-22T20:08:14.063Z,21.80
2018-08-22T20:10:42.134Z,21.70
2018-08-22T20:13:10.175Z,21.60
2018-08-22T20:15:38.207Z,21.60
2018-08-22T20:18:06.336Z,21.60
2018-08-22T20:20:34.362Z,21.60
2018-08-22T20:23:02.438Z,21.50
2018-08-22T20:25:30.479Z,21.50
2018-08-22T20:28:00.291Z,21.50
2018-08-22T20:30:28.358Z,21.50
2018-08-22T20:33:01.972Z,21.40
2018-08-22T20:35:35.866Z,21.40
2018-08-22T20:38:05.235Z,21.30
2018-08-22T20:40:33.274Z,21.30
2018-08-22T20:43:01.311Z,21.30
2018-08-22T20:45:34.558Z,21.30
2018-08-22T20:48:08.046Z,21.30
2018-08-22T20:50:37.466Z,21.30
2018-08-22T20:53:07.179Z,21.20
2018-08-22T20:55:35.236Z,21.20
2018-08-22T20:58:03.926Z,21.10
2018-08-22T21:00:33.246Z,21.10
2018-08-22T21:03:01.338Z,21.10
2018-08-22T21:05:29.343Z,21.00
2018-08-22T21:07:57.443Z,21.00
2018-08-22T21:10:25.477Z,20.90
2018-08-22T21:12:53.514Z,20.90
2018-08-22T21:15:21.546Z,21.00
2018-08-22T21:17:49.623Z,20.90
2018-08-22T21:20:22.501Z,20.90
2018-08-22T21:22:50.881Z,20.90
2018-08-22T21:25:18.943Z,21.00
2018-08-22T21:27:47.847Z,21.00
2018-08-22T21:30:16.415Z,20.90
2018-08-22T21:32:45.223Z,20.90
2018-08-22T21:35:17.527Z,20.90
2018-08-22T21:37:45.612Z,20.80
2018-08-22T21:40:13.655Z,20.70
2018-08-22T21:42:42.510Z,20.70
2018-08-22T21:45:11.020Z,20.70
2018-08-22T21:47:39.171Z,20.70
2018-08-22T21:50:07.392Z,20.70
2018-08-22T21:52:54.359Z,20.60
2018-08-22T21:55:26.315Z,20.60
2018-08-22T21:57:54.386Z,20.50
2018-08-22T22:00:26.264Z,20.50
2018-08-22T22:02:54.298Z,20.40
2018-08-22T22:05:32.591Z,20.40
2018-08-22T22:08:01.131Z,20.40
2018-08-22T22:10:29.188Z,20.40
2018-08-22T22:12:57.231Z,20.40
2018-08-22T22:15:30.762Z,20.30
2018-08-22T22:17:58.815Z,20.30
2018-08-22T22:20:27.191Z,20.30
2018-08-22T22:22:55.244Z,20.30
2018-08-22T22:25:23.270Z,20.30
2018-08-22T22:27:51.326Z,20.30
2018-08-22T22:30:19.355Z,20.30
2018-08-22T22:32:47.453Z,20.30
2018-08-22T22:35:17.554Z,20.30
2018-08-22T22:37:45.604Z,20.30
2018-08-22T22:40:13.644Z,20.30
2018-08-22T22:42:41.702Z,20.30
2018-08-22T22:45:09.739Z,20.40
2018-08-22T22:47:37.831Z,20.40
2018-08-22T22:50:05.883Z,20.40
2018-08-22T22:52:39.323Z,20.40
2018-08-22T22:55:08.179Z,20.50
2018-08-22T22:57:37.462Z,20.70
2018-08-22T23:00:07.666Z,20.80
2018-08-22T23:02:35.707Z,20.90
2018-08-22T23:05:03.833Z,21.00
2018-08-22T23:07:33.026Z,21.00
2018-08-22T23:10:02.231Z,21.00
2018-08-22T23:12:37.868Z,21.00
2018-08-22T23:15:08.024Z,21.10
2018-08-22T23:17:36.065Z,21.20
2018-08-22T23:20:14.245Z,21.20
2018-08-22T23:22:42.274Z,21.30
2018-08-22T23:25:11.147Z,21.30
2018-08-22T23:27:40.224Z,21.30
2018-08-22T23:30:08.506Z,21.30
2018-08-22T23:32:37.607Z,21.20
2018-08-22T23:35:19.094Z,21.20
2018-08-22T23:37:50.220Z,21.10
2018-08-22T23:40:18.504Z,21.10
2018-08-22T23:42:46.538Z,21.00
2018-08-22T23:45:14.591Z,21.00
2018-08-22T23:47:42.628Z,21.10
2018-08-22T23:50:10.671Z,21.20
2018-08-22T23:52:44.079Z,21.10
2018-08-22T23:55:12.126Z,21.20
2018-08-22T23:57:40.216Z,21.30
